sensor_id;sensor_type;location;lat;lon;timestamp;pressure;altitude;pressure_sealevel;temperature;humidity
33286;BME280;19656;50.096;20.014;2022-09-12T00:03:26;98779.20;;;15.49;66.09
33286;BME280;19656;50.096;20.014;2022-09-12T00:08:29;98779.31;;;15.56;66.19
33286;BME280;19656;50.096;20.014;2022-09-12T00:13:32;98776.04;;;15.58;66.22
33286;BME280;19656;50.096;20.014;2022-09-12T00:18:41;98767.86;;;15.58;66.10
33286;BME280;19656;50.096;20.014;2022-09-12T00:23:45;98770.40;;;15.53;65.92
33286;BME280;19656;50.096;20.014;2022-09-12T00:28:49;98775.94;;;15.48;65.88
33286;BME280;19656;50.096;20.014;2022-09-12T00:33:55;98777.71;;;15.48;65.97
33286;BME280;19656;50.096;20.014;2022-09-12T00:38:58;98783.56;;;15.50;65.81
33286;BME280;19656;50.096;20.014;2022-09-12T00:54:40;98783.96;;;15.40;65.77
33286;BME280;19656;50.096;20.014;2022-09-12T00:59:49;98785.00;;;15.33;65.59
33286;BME280;19656;50.096;20.014;2022-09-12T01:04:55;98784.38;;;15.30;65.71
33286;BME280;19656;50.096;20.014;2022-09-12T01:09:58;98782.90;;;15.31;65.92
33286;BME280;19656;50.096;20.014;2022-09-12T01:15:02;98784.29;;;15.29;65.95
33286;BME280;19656;50.096;20.014;2022-09-12T01:20:25;98779.76;;;15.22;65.94
33286;BME280;19656;50.096;20.014;2022-09-12T01:31:20;98785.05;;;15.21;65.97
33286;BME280;19656;50.096;20.014;2022-09-12T01:36:37;98786.77;;;15.17;65.69
33286;BME280;19656;50.096;20.014;2022-09-12T01:52:18;98781.52;;;15.20;65.83
33286;BME280;19656;50.096;20.014;2022-09-12T01:57:37;98787.79;;;15.18;65.81
33286;BME280;19656;50.096;20.014;2022-09-12T02:02:59;98793.61;;;15.17;65.67
33286;BME280;19656;50.096;20.014;2022-09-12T02:08:14;98799.04;;;15.11;65.57
33286;BME280;19656;50.096;20.014;2022-09-12T02:13:25;98806.34;;;15.12;65.74
33286;BME280;19656;50.096;20.014;2022-09-12T02:18:33;98803.66;;;15.14;65.77
33286;BME280;19656;50.096;20.014;2022-09-12T02:23:41;98802.41;;;15.16;65.58
33286;BME280;19656;50.096;20.014;2022-09-12T02:28:47;98796.98;;;15.17;65.72
33286;BME280;19656;50.096;20.014;2022-09-12T02:39:05;98786.07;;;15.12;65.27
33286;BME280;19656;50.096;20.014;2022-09-12T02:44:08;98779.70;;;15.08;65.37
33286;BME280;19656;50.096;20.014;2022-09-12T02:49:11;98784.69;;;15.06;65.14
33286;BME280;19656;50.096;20.014;2022-09-12T02:54:15;98784.20;;;15.07;65.43
33286;BME280;19656;50.096;20.014;2022-09-12T02:59:21;98783.19;;;15.11;65.55
33286;BME280;19656;50.096;20.014;2022-09-12T03:05:01;98786.06;;;15.11;65.32
33286;BME280;19656;50.096;20.014;2022-09-12T03:20:30;98796.13;;;14.91;65.48
33286;BME280;19656;50.096;20.014;2022-09-12T03:26:08;98805.67;;;14.90;65.60
33286;BME280;19656;50.096;20.014;2022-09-12T03:31:14;98807.95;;;14.93;65.81
33286;BME280;19656;50.096;20.014;2022-09-12T03:36:22;98809.48;;;14.96;65.96
33286;BME280;19656;50.096;20.014;2022-09-12T03:41:25;98808.47;;;14.97;65.92
33286;BME280;19656;50.096;20.014;2022-09-12T03:46:28;98812.39;;;14.93;65.68
33286;BME280;19656;50.096;20.014;2022-09-12T03:51:31;98823.88;;;14.88;65.80
33286;BME280;19656;50.096;20.014;2022-09-12T03:56:34;98828.17;;;14.81;65.87
33286;BME280;19656;50.096;20.014;2022-09-12T04:01:37;98826.78;;;14.77;65.92
33286;BME280;19656;50.096;20.014;2022-09-12T04:06:40;98829.77;;;14.77;65.92
33286;BME280;19656;50.096;20.014;2022-09-12T04:11:44;98833.61;;;14.74;65.96
33286;BME280;19656;50.096;20.014;2022-09-12T04:16:47;98840.27;;;14.71;66.05
33286;BME280;19656;50.096;20.014;2022-09-12T04:21:50;98832.17;;;14.63;65.82
33286;BME280;19656;50.096;20.014;2022-09-12T04:26:54;98833.73;;;14.57;65.92
33286;BME280;19656;50.096;20.014;2022-09-12T04:31:57;98834.29;;;14.57;66.15
33286;BME280;19656;50.096;20.014;2022-09-12T04:37:00;98838.71;;;14.58;65.94
33286;BME280;19656;50.096;20.014;2022-09-12T04:42:04;98836.63;;;14.59;66.15
33286;BME280;19656;50.096;20.014;2022-09-12T04:47:07;98838.79;;;14.56;66.07
33286;BME280;19656;50.096;20.014;2022-09-12T04:52:10;98843.92;;;14.55;66.14
33286;BME280;19656;50.096;20.014;2022-09-12T04:57:13;98846.05;;;14.48;65.97
33286;BME280;19656;50.096;20.014;2022-09-12T05:02:16;98851.54;;;14.49;66.05
33286;BME280;19656;50.096;20.014;2022-09-12T05:07:19;98859.98;;;14.50;66.07
33286;BME280;19656;50.096;20.014;2022-09-12T05:12:23;98860.38;;;14.50;66.26
33286;BME280;19656;50.096;20.014;2022-09-12T05:17:28;98864.48;;;14.52;66.31
33286;BME280;19656;50.096;20.014;2022-09-12T05:22:31;98867.67;;;14.48;66.15
33286;BME280;19656;50.096;20.014;2022-09-12T05:27:34;98873.59;;;14.45;66.32
33286;BME280;19656;50.096;20.014;2022-09-12T05:32:37;98879.50;;;14.50;66.26
33286;BME280;19656;50.096;20.014;2022-09-12T05:37:41;98884.75;;;14.58;66.42
33286;BME280;19656;50.096;20.014;2022-09-12T05:42:44;98885.17;;;14.61;66.21
33286;BME280;19656;50.096;20.014;2022-09-12T05:47:47;98882.27;;;14.60;65.91
33286;BME280;19656;50.096;20.014;2022-09-12T05:52:50;98880.43;;;14.58;65.69
33286;BME280;19656;50.096;20.014;2022-09-12T05:57:53;98875.15;;;14.53;65.51
33286;BME280;19656;50.096;20.014;2022-09-12T06:02:56;98873.68;;;14.47;65.30
33286;BME280;19656;50.096;20.014;2022-09-12T06:07:59;98878.80;;;14.47;65.50
33286;BME280;19656;50.096;20.014;2022-09-12T06:13:02;98879.77;;;14.54;65.15
33286;BME280;19656;50.096;20.014;2022-09-12T06:18:05;98877.66;;;14.57;65.25
33286;BME280;19656;50.096;20.014;2022-09-12T06:23:08;98878.88;;;14.58;64.95
33286;BME280;19656;50.096;20.014;2022-09-12T06:28:11;98890.15;;;14.60;65.00
33286;BME280;19656;50.096;20.014;2022-09-12T06:33:15;98885.10;;;14.58;64.69
33286;BME280;19656;50.096;20.014;2022-09-12T06:38:18;98882.35;;;14.55;64.52
33286;BME280;19656;50.096;20.014;2022-09-12T06:43:21;98892.76;;;14.56;64.48
33286;BME280;19656;50.096;20.014;2022-09-12T06:48:24;98900.55;;;14.63;64.68
33286;BME280;19656;50.096;20.014;2022-09-12T06:53:29;98901.65;;;14.76;64.56
33286;BME280;19656;50.096;20.014;2022-09-12T06:58:33;98899.84;;;14.85;64.37
33286;BME280;19656;50.096;20.014;2022-09-12T07:03:37;98903.68;;;14.93;64.23
33286;BME280;19656;50.096;20.014;2022-09-12T07:08:40;98911.17;;;14.97;64.15
33286;BME280;19656;50.096;20.014;2022-09-12T07:13:45;98914.73;;;15.00;63.75
33286;BME280;19656;50.096;20.014;2022-09-12T07:18:51;98913.20;;;14.95;63.49
33286;BME280;19656;50.096;20.014;2022-09-12T07:23:54;98910.16;;;14.95;63.45
33286;BME280;19656;50.096;20.014;2022-09-12T07:28:59;98911.77;;;15.03;63.57
33286;BME280;19656;50.096;20.014;2022-09-12T07:34:23;98917.73;;;15.11;63.37
33286;BME280;19656;50.096;20.014;2022-09-12T07:39:26;98927.83;;;15.19;62.94
33286;BME280;19656;50.096;20.014;2022-09-12T07:44:29;98931.02;;;15.23;62.68
33286;BME280;19656;50.096;20.014;2022-09-12T07:49:32;98927.84;;;15.29;62.51
33286;BME280;19656;50.096;20.014;2022-09-12T07:54:35;98928.45;;;15.39;62.54
33286;BME280;19656;50.096;20.014;2022-09-12T07:59:38;98929.86;;;15.52;61.97
33286;BME280;19656;50.096;20.014;2022-09-12T08:04:55;98931.91;;;15.62;61.32
33286;BME280;19656;50.096;20.014;2022-09-12T08:09:58;98934.38;;;15.67;61.00
33286;BME280;19656;50.096;20.014;2022-09-12T08:15:02;98938.82;;;15.65;60.45
33286;BME280;19656;50.096;20.014;2022-09-12T08:20:07;98941.10;;;15.63;60.27
33286;BME280;19656;50.096;20.014;2022-09-12T08:25:10;98949.89;;;15.69;59.99
33286;BME280;19656;50.096;20.014;2022-09-12T08:30:13;98951.56;;;15.67;59.81
33286;BME280;19656;50.096;20.014;2022-09-12T08:35:17;98942.02;;;15.58;59.33
33286;BME280;19656;50.096;20.014;2022-09-12T08:40:20;98934.58;;;15.57;59.52
33286;BME280;19656;50.096;20.014;2022-09-12T08:45:35;98936.34;;;15.69;59.71
33286;BME280;19656;50.096;20.014;2022-09-12T08:50:40;98938.70;;;15.83;58.99
33286;BME280;19656;50.096;20.014;2022-09-12T08:55:51;98939.03;;;15.96;58.99
33286;BME280;19656;50.096;20.014;2022-09-12T09:00:57;98943.75;;;15.97;58.76
33286;BME280;19656;50.096;20.014;2022-09-12T09:17:18;98933.66;;;16.29;57.73
33286;BME280;19656;50.096;20.014;2022-09-12T09:22:36;98933.33;;;16.43;57.75
33286;BME280;19656;50.096;20.014;2022-09-12T09:27:46;98938.16;;;16.51;57.07
33286;BME280;19656;50.096;20.014;2022-09-12T09:32:54;98922.98;;;16.67;56.98
33286;BME280;19656;50.096;20.014;2022-09-12T09:38:03;98930.18;;;16.81;56.53
33286;BME280;19656;50.096;20.014;2022-09-12T09:43:21;98927.66;;;16.87;55.84
33286;BME280;19656;50.096;20.014;2022-09-12T09:48:33;98926.89;;;16.98;56.06
33286;BME280;19656;50.096;20.014;2022-09-12T09:53:55;98923.33;;;16.97;55.28
33286;BME280;19656;50.096;20.014;2022-09-12T10:04:23;98920.93;;;17.32;55.22
33286;BME280;19656;50.096;20.014;2022-09-12T10:09:36;98920.30;;;17.42;54.86
33286;BME280;19656;50.096;20.014;2022-09-12T10:14:40;98920.33;;;17.61;54.59
33286;BME280;19656;50.096;20.014;2022-09-12T10:19:43;98924.52;;;17.82;54.27
33286;BME280;19656;50.096;20.014;2022-09-12T10:25:10;98922.44;;;18.03;53.66
33286;BME280;19656;50.096;20.014;2022-09-12T10:35:19;98920.30;;;18.15;53.31
33286;BME280;19656;50.096;20.014;2022-09-12T10:40:28;98918.78;;;18.42;53.40
33286;BME280;19656;50.096;20.014;2022-09-12T10:45:35;98917.52;;;18.64;52.88
33286;BME280;19656;50.096;20.014;2022-09-12T10:50:42;98919.88;;;18.66;52.22
33286;BME280;19656;50.096;20.014;2022-09-12T11:17:18;98916.77;;;18.83;51.01
33286;BME280;19656;50.096;20.014;2022-09-12T11:33:40;98911.61;;;19.10;50.35
33286;BME280;19656;50.096;20.014;2022-09-12T11:39:00;98906.77;;;19.32;50.39
33286;BME280;19656;50.096;20.014;2022-09-12T11:44:13;98906.19;;;19.50;49.98
33286;BME280;19656;50.096;20.014;2022-09-12T11:49:26;98909.08;;;19.55;49.34
33286;BME280;19656;50.096;20.014;2022-09-12T11:54:49;98913.50;;;19.72;49.05
33286;BME280;19656;50.096;20.014;2022-09-12T12:10:41;98904.58;;;20.67;47.72
33286;BME280;19656;50.096;20.014;2022-09-12T12:15:48;98906.21;;;20.87;47.45
33286;BME280;19656;50.096;20.014;2022-09-12T12:20:54;98906.84;;;20.86;46.85
33286;BME280;19656;50.096;20.014;2022-09-12T12:25:59;98908.72;;;20.92;46.72
33286;BME280;19656;50.096;20.014;2022-09-12T12:31:03;98901.14;;;21.26;46.51
33286;BME280;19656;50.096;20.014;2022-09-12T12:36:08;98895.35;;;21.42;45.74
33286;BME280;19656;50.096;20.014;2022-09-12T12:46:22;98896.80;;;21.41;45.58
33286;BME280;19656;50.096;20.014;2022-09-12T12:56:39;98894.46;;;22.04;44.88
33286;BME280;19656;50.096;20.014;2022-09-12T13:01:45;98894.11;;;22.43;44.80
33286;BME280;19656;50.096;20.014;2022-09-12T13:06:59;98892.79;;;22.78;44.41
33286;BME280;19656;50.096;20.014;2022-09-12T13:12:16;98894.33;;;22.68;43.44
33286;BME280;19656;50.096;20.014;2022-09-12T13:17:46;98888.83;;;22.43;43.34
33286;BME280;19656;50.096;20.014;2022-09-12T13:22:51;98891.13;;;22.43;43.39
33286;BME280;19656;50.096;20.014;2022-09-12T13:33:16;98882.08;;;23.12;43.43
33286;BME280;19656;50.096;20.014;2022-09-12T13:38:53;98881.52;;;23.13;42.55
33286;BME280;19656;50.096;20.014;2022-09-12T13:43:59;98875.83;;;22.67;41.86
33286;BME280;19656;50.096;20.014;2022-09-12T13:49:36;98875.27;;;22.64;42.10
33286;BME280;19656;50.096;20.014;2022-09-12T13:54:43;98873.16;;;22.68;41.86
33286;BME280;19656;50.096;20.014;2022-09-12T13:59:48;98865.73;;;22.59;42.03
33286;BME280;19656;50.096;20.014;2022-09-12T14:04:52;98871.16;;;22.37;41.81
33286;BME280;19656;50.096;20.014;2022-09-12T14:10:29;98872.39;;;21.97;41.67
33286;BME280;19656;50.096;20.014;2022-09-12T14:15:35;98875.70;;;21.65;41.51
33286;BME280;19656;50.096;20.014;2022-09-12T14:20:39;98882.29;;;21.37;41.65
33286;BME280;19656;50.096;20.014;2022-09-12T14:25:43;98882.06;;;21.17;41.83
33286;BME280;19656;50.096;20.014;2022-09-12T14:31:01;98883.75;;;21.07;41.98
33286;BME280;19656;50.096;20.014;2022-09-12T14:41:26;98876.09;;;20.89;42.21
33286;BME280;19656;50.096;20.014;2022-09-12T14:46:34;98876.14;;;20.83;42.54
33286;BME280;19656;50.096;20.014;2022-09-12T14:51:42;98872.15;;;20.76;42.65
33286;BME280;19656;50.096;20.014;2022-09-12T14:56:58;98876.42;;;20.59;42.81
33286;BME280;19656;50.096;20.014;2022-09-12T15:02:20;98876.89;;;20.46;43.03
33286;BME280;19656;50.096;20.014;2022-09-12T15:07:40;98880.98;;;20.36;43.39
33286;BME280;19656;50.096;20.014;2022-09-12T15:12:44;98883.23;;;20.28;43.65
33286;BME280;19656;50.096;20.014;2022-09-12T15:17:46;98884.45;;;20.25;43.79
33286;BME280;19656;50.096;20.014;2022-09-12T15:22:50;98877.06;;;20.20;43.68
33286;BME280;19656;50.096;20.014;2022-09-12T15:27:53;98882.20;;;20.09;43.79
33286;BME280;19656;50.096;20.014;2022-09-12T15:32:57;98884.31;;;19.97;44.08
33286;BME280;19656;50.096;20.014;2022-09-12T15:38:01;98884.04;;;19.87;44.33
33286;BME280;19656;50.096;20.014;2022-09-12T15:43:05;98885.38;;;19.80;44.31
33286;BME280;19656;50.096;20.014;2022-09-12T15:48:08;98889.83;;;19.73;44.40
33286;BME280;19656;50.096;20.014;2022-09-12T15:53:15;98891.44;;;19.62;44.35
33286;BME280;19656;50.096;20.014;2022-09-12T15:58:19;98889.68;;;19.56;44.64
33286;BME280;19656;50.096;20.014;2022-09-12T16:03:27;98892.04;;;19.53;44.78
33286;BME280;19656;50.096;20.014;2022-09-12T16:08:30;98893.02;;;19.45;45.01
33286;BME280;19656;50.096;20.014;2022-09-12T16:13:35;98888.63;;;19.33;45.16
33286;BME280;19656;50.096;20.014;2022-09-12T16:18:39;98888.80;;;19.23;45.36
33286;BME280;19656;50.096;20.014;2022-09-12T16:23:43;98899.28;;;19.15;45.54
33286;BME280;19656;50.096;20.014;2022-09-12T16:28:46;98905.00;;;19.06;45.70
33286;BME280;19656;50.096;20.014;2022-09-12T16:33:49;98901.27;;;18.97;45.83
33286;BME280;19656;50.096;20.014;2022-09-12T16:38:53;98903.26;;;18.84;45.89
33286;BME280;19656;50.096;20.014;2022-09-12T16:43:56;98906.16;;;18.70;46.16
33286;BME280;19656;50.096;20.014;2022-09-12T16:48:59;98908.60;;;18.57;46.38
33286;BME280;19656;50.096;20.014;2022-09-12T16:54:03;98908.36;;;18.46;46.54
33286;BME280;19656;50.096;20.014;2022-09-12T16:59:07;98912.35;;;18.34;46.68
33286;BME280;19656;50.096;20.014;2022-09-12T17:04:13;98914.30;;;18.22;46.96
33286;BME280;19656;50.096;20.014;2022-09-12T17:09:16;98914.20;;;18.08;47.17
33286;BME280;19656;50.096;20.014;2022-09-12T17:14:20;98918.92;;;17.98;47.34
33286;BME280;19656;50.096;20.014;2022-09-12T17:19:25;98926.40;;;17.85;47.78
33286;BME280;19656;50.096;20.014;2022-09-12T17:24:31;98928.66;;;17.74;47.94
33286;BME280;19656;50.096;20.014;2022-09-12T17:29:34;98937.10;;;17.66;48.31
33286;BME280;19656;50.096;20.014;2022-09-12T17:34:39;98936.00;;;17.63;48.74
33286;BME280;19656;50.096;20.014;2022-09-12T17:39:42;98939.22;;;17.59;48.91
33286;BME280;19656;50.096;20.014;2022-09-12T17:44:45;98933.73;;;17.54;49.23
33286;BME280;19656;50.096;20.014;2022-09-12T17:49:50;98937.96;;;17.47;49.26
33286;BME280;19656;50.096;20.014;2022-09-12T17:55:15;98943.42;;;17.39;49.36
33286;BME280;19656;50.096;20.014;2022-09-12T18:00:19;98950.90;;;17.29;49.74
33286;BME280;19656;50.096;20.014;2022-09-12T18:05:46;98953.56;;;17.20;49.93
33286;BME280;19656;50.096;20.014;2022-09-12T18:10:50;98952.77;;;17.11;50.02
33286;BME280;19656;50.096;20.014;2022-09-12T18:15:53;98958.02;;;17.00;50.06
33286;BME280;19656;50.096;20.014;2022-09-12T18:20:57;98963.75;;;16.90;50.24
33286;BME280;19656;50.096;20.014;2022-09-12T18:26:03;98968.86;;;16.85;50.86
33286;BME280;19656;50.096;20.014;2022-09-12T18:31:13;98968.66;;;16.82;50.64
33286;BME280;19656;50.096;20.014;2022-09-12T18:36:18;98966.20;;;16.79;51.11
33286;BME280;19656;50.096;20.014;2022-09-12T18:41:22;98968.19;;;16.83;51.44
33286;BME280;19656;50.096;20.014;2022-09-12T18:46:27;98969.38;;;16.87;51.23
33286;BME280;19656;50.096;20.014;2022-09-12T18:51:33;98971.61;;;16.92;51.24
33286;BME280;19656;50.096;20.014;2022-09-12T18:56:38;98972.58;;;16.92;51.54
33286;BME280;19656;50.096;20.014;2022-09-12T19:01:42;98966.75;;;16.89;51.29
33286;BME280;19656;50.096;20.014;2022-09-12T19:06:47;98968.14;;;16.85;51.65
33286;BME280;19656;50.096;20.014;2022-09-12T19:11:52;98965.29;;;16.81;51.62
33286;BME280;19656;50.096;20.014;2022-09-12T19:16:55;98965.40;;;16.80;51.67
33286;BME280;19656;50.096;20.014;2022-09-12T19:21:58;98965.64;;;16.81;51.53
33286;BME280;19656;50.096;20.014;2022-09-12T19:27:02;98963.44;;;16.86;51.88
33286;BME280;19656;50.096;20.014;2022-09-12T19:32:05;98962.81;;;16.85;51.95
33286;BME280;19656;50.096;20.014;2022-09-12T19:37:09;98961.60;;;16.84;51.97
33286;BME280;19656;50.096;20.014;2022-09-12T19:42:12;98959.42;;;16.83;52.03
33286;BME280;19656;50.096;20.014;2022-09-12T19:47:15;98952.88;;;16.77;52.07
33286;BME280;19656;50.096;20.014;2022-09-12T19:52:18;98952.08;;;16.72;52.52
33286;BME280;19656;50.096;20.014;2022-09-12T19:57:21;98947.52;;;16.67;52.57
33286;BME280;19656;50.096;20.014;2022-09-12T20:02:24;98945.88;;;16.63;52.59
33286;BME280;19656;50.096;20.014;2022-09-12T20:07:29;98943.80;;;16.58;52.43
33286;BME280;19656;50.096;20.014;2022-09-12T20:12:32;98944.37;;;16.52;52.80
33286;BME280;19656;50.096;20.014;2022-09-12T20:17:35;98936.48;;;16.46;52.72
33286;BME280;19656;50.096;20.014;2022-09-12T20:22:38;98934.91;;;16.38;53.07
33286;BME280;19656;50.096;20.014;2022-09-12T20:27:42;98925.23;;;16.31;53.10
33286;BME280;19656;50.096;20.014;2022-09-12T20:32:45;98924.59;;;16.24;53.32
33286;BME280;19656;50.096;20.014;2022-09-12T20:37:48;98921.71;;;16.18;53.47
33286;BME280;19656;50.096;20.014;2022-09-12T20:42:51;98918.48;;;16.12;53.55
33286;BME280;19656;50.096;20.014;2022-09-12T20:47:54;98922.21;;;16.09;54.03
33286;BME280;19656;50.096;20.014;2022-09-12T20:52:57;98924.14;;;16.03;53.91
33286;BME280;19656;50.096;20.014;2022-09-12T20:58:00;98926.60;;;16.01;54.16
33286;BME280;19656;50.096;20.014;2022-09-12T21:03:03;98930.69;;;15.97;54.27
33286;BME280;19656;50.096;20.014;2022-09-12T21:08:06;98929.21;;;15.87;54.40
33286;BME280;19656;50.096;20.014;2022-09-12T21:13:10;98932.38;;;15.71;54.54
33286;BME280;19656;50.096;20.014;2022-09-12T21:18:14;98936.19;;;15.58;54.80
33286;BME280;19656;50.096;20.014;2022-09-12T21:23:17;98930.66;;;15.45;55.14
33286;BME280;19656;50.096;20.014;2022-09-12T21:28:20;98937.38;;;15.39;55.55
33286;BME280;19656;50.096;20.014;2022-09-12T21:33:23;98934.39;;;15.34;55.50
33286;BME280;19656;50.096;20.014;2022-09-12T21:38:26;98938.95;;;15.29;55.61
33286;BME280;19656;50.096;20.014;2022-09-12T21:43:29;98933.80;;;15.22;55.90
33286;BME280;19656;50.096;20.014;2022-09-12T21:48:32;98924.95;;;15.21;56.01
33286;BME280;19656;50.096;20.014;2022-09-12T21:53:36;98919.62;;;15.23;56.24
33286;BME280;19656;50.096;20.014;2022-09-12T21:58:39;98922.09;;;15.23;56.33
33286;BME280;19656;50.096;20.014;2022-09-12T22:03:42;98921.15;;;15.22;56.50
33286;BME280;19656;50.096;20.014;2022-09-12T22:08:46;98926.85;;;15.22;56.77
33286;BME280;19656;50.096;20.014;2022-09-12T22:13:49;98924.97;;;15.19;56.77
33286;BME280;19656;50.096;20.014;2022-09-12T22:18:52;98924.20;;;15.17;57.18
33286;BME280;19656;50.096;20.014;2022-09-12T22:23:55;98918.70;;;15.10;57.20
33286;BME280;19656;50.096;20.014;2022-09-12T22:29:27;98910.02;;;15.09;57.33
33286;BME280;19656;50.096;20.014;2022-09-12T22:34:30;98911.62;;;15.09;57.82
33286;BME280;19656;50.096;20.014;2022-09-12T22:39:33;98904.38;;;15.06;57.96
33286;BME280;19656;50.096;20.014;2022-09-12T22:44:36;98904.84;;;15.03;57.88
33286;BME280;19656;50.096;20.014;2022-09-12T22:49:41;98900.66;;;14.97;58.05
33286;BME280;19656;50.096;20.014;2022-09-12T22:54:44;98896.65;;;14.92;58.04
33286;BME280;19656;50.096;20.014;2022-09-12T22:59:47;98894.01;;;14.86;58.33
33286;BME280;19656;50.096;20.014;2022-09-12T23:04:50;98891.11;;;14.81;58.37
33286;BME280;19656;50.096;20.014;2022-09-12T23:09:54;98886.76;;;14.77;58.75
33286;BME280;19656;50.096;20.014;2022-09-12T23:14:56;98890.05;;;14.76;58.96
33286;BME280;19656;50.096;20.014;2022-09-12T23:19:59;98887.31;;;14.75;59.06
33286;BME280;19656;50.096;20.014;2022-09-12T23:25:03;98889.10;;;14.73;59.28
33286;BME280;19656;50.096;20.014;2022-09-12T23:30:06;98890.48;;;14.73;59.22
33286;BME280;19656;50.096;20.014;2022-09-12T23:35:12;98886.96;;;14.68;59.35
33286;BME280;19656;50.096;20.014;2022-09-12T23:40:17;98888.48;;;14.69;59.40
33286;BME280;19656;50.096;20.014;2022-09-12T23:45:20;98889.52;;;14.74;59.62
33286;BME280;19656;50.096;20.014;2022-09-12T23:50:23;98889.42;;;14.81;59.93
33286;BME280;19656;50.096;20.014;2022-09-12T23:55:26;98890.40;;;14.87;60.06
